Aviation Digital Data Service (ADDS)

Output produced by METARs form (2229 UTC 23 March 2019)
found at http://www.aviationweather.gov/metar/data/
 
Forecast for: ZBYN (TAIYUAN/WUSU , CN)
Text: TAF ZBYN 231903Z 2400/2424 21004MPS 6000 NSC TX15/2407Z TNM01/22Z
Forecast period: 0000 UTC 24 March 2019 to 0000 UTC 25 March 2019
Forecast type: FROM: standard forecast or significant change
Winds: from the SSW (210 degrees) at 9 MPH (8 knots; 4.1 m/s)
Visibility: 4 miles (6 km)
Ceiling: unknown
Clouds: missing
Weather: no significant weather forecast for this period